Airfield :
LOGIN :

Register | Disclaimer

   EN    FR    IT 

 










Legend :    VFR   Marginal VFR   IFR   Intensive IFR   Very Intensive IFR
Visi :
Ceiling :
>= 8 km
>= 3000ft
5 to 8 km
1000 to 3000 ft
1500m to 5 km
500 to 1000 ft
800 to 1500m
200 to 500 ft
< 800m
< 200 ft
Symbols :   Thunderstorms  Fog  Heavy snow  Heavy precipitations  Wind > 20 kt
SIGMETs :     Misc.  Thunderstorms  Icing  Turbulence  Mountain Waves  Volcanic Ashes






- Airport Elevation : 154 ft
- IATA code : SZZ


EPSC - Szczecin Goleniow

CURRENT METAR :
  • 021130Z 06006KT 020V110 9999 OVC014 02/M02 Q1028

EXPIRED METARs :
  • 021100Z 06005KT 020V120 9999 OVC015 02/M02 Q1028
  • 021030Z 06005KT 020V100 9999 OVC017 02/M02 Q1028
  • 021000Z 05005KT 020V090 9999 SCT016 OVC019 02/M02 Q1028
  • 020930Z 05005KT 020V090 9999 FEW016 OVC019 02/M02 Q1028
  • 020900Z 05005KT 020V090 9999 FEW018 OVC021 01/M02 Q1028

TAF TAF EPSC
Valid from the 02 at 12:00 until the 03 at 12:00 UTC


021130Z 0212/0312 08007KT 9999 BKN014 OVC016
BECMG 0212/0215 SCT020
TEMPO 0307/0312 1000 SN BR SCT003 BKN007



MET'MAP, your aeronautical weather chart ! - Copyright ORBIFLY December 2007 - Disclaimer

ORBIFLY MET'MAP TEAM :

Programming & Development : Alexandra Zaïnal
Original concept : Baudouin d'Aumeries
Technical & hardware support : Manuel Goepfert
Assistance : Marc-Olivier Méhu




SOURCES & CREDITS :

   NOAA